SBOSBO GIB / LXGB
Speedbird OnlineSpeedbird Online GIB / LXGB

Gibraltar Airport
08:41 20°C

Location Gibraltar, Gibraltar
Latitude: 36.1511993408
Longitude: -5.3496599197400005
Web Wikipedia
Altitude 5 Meter / 15 Feet
Distance 1,762 KM / 1,095 Miles
from London.
Time Zone UTC +2 hours (Europe/Gibraltar)
Codes IATA: GIB
ICAO: LXGB
Currency £1 equals GIP 0.98
Runways
RunwayLength (m)Surface
091829Asphalt
271829Asphalt
Radio
TypeDescriptionFrequency
A/DAPP122.8
OPSGIB TALKDOWN130.4
TWRTWR131.2
Live ATC
METAR LXGB 060550Z 09010KT 9999 FEW011 SCT032 20/18 Q1022 RMK BLU
TAF TAF LXGB 060426Z 0606/0615 07010KT 9999 FEW010 PROB40 TEMPO 0606/0609 BKN010 PROB30 TEMPO 0609/0614 SCT010 PROB30 TEMPO 0612/0615 09015G25KT 520002
Weather As Of 06 Oct 2022 08:41
Description Scattered clouds
Wind 19 km/h from East (90°)
Cloud Cover 40%
Precipitation Rain: none, Snow: none
Sunrise 08:20
Sunset 19:58
Lounges Calpe Lounge , Main
Rotations During the last 90 days there were
149 flights from LHR
154 flights to LHR


© 2017-2022 Speedbird Online